Terminal Aerodrome Forecast
Issued by NWS

Home | Current Version | Previous Version | Text Only | Print | Product List | Glossary On
Versions: 1 2 3 4 5 6 7 8 9 10 11 12 13 14 15
000
FTUS45 KLKN 261137
TAFEKO
TAF
KEKO 261137Z 2612/2712 VRB06KT P6SM BKN080
     FM261900 31010G20KT P6SM BKN080
     FM262300 30012G22KT P6SM VCTS BKN070CB
     FM270300 30008KT P6SM BKN070
     FM270900 VRB03KT P6SM SKC=

USA.gov is the U.S. government's official web portal to all federal, state and local government web resources and services.